Time;durP1;ratioP1;P1;durP2;ratioP2;P2;SDS_P1;SDS_P2;PMS_P1;PMS_P2;Temp;Humidity;BMP_temperature;BMP_pressure;BME280_temperature;BME280_humidity;BME280_pressure;Samples;Min_cycle;Max_cycle;Signal;HPM_P1;HPM_P2
2022/07/24 00:01:08;;;;;;;9.45;8.38;;;;;;;22.36;54.29;97027.50;4899063;29;20513;-78
2022/07/24 00:03:37;;;;;;;8.93;7.93;;;;;;;22.35;54.54;97032.00;4898949;29;20049;-79
2022/07/24 00:06:06;;;;;;;10.23;7.97;;;;;;;22.33;54.43;97022.69;4899399;29;20048;-79
2022/07/24 00:08:33;;;;;;;12.82;8.30;;;;;;;22.32;54.44;97021.84;4898679;29;20109;-79
2022/07/24 00:11:02;;;;;;;9.07;7.85;;;;;;;22.32;54.69;97032.47;4898575;29;20100;-79
2022/07/24 00:13:30;;;;;;;9.38;8.38;;;;;;;22.28;54.91;97027.91;4899232;29;20059;-79
2022/07/24 00:15:57;;;;;;;9.38;8.43;;;;;;;22.24;55.10;97035.59;4904917;29;20076;-80
2022/07/24 00:18:25;;;;;;;9.75;8.75;;;;;;;22.20;55.30;97035.22;4903632;29;20493;-80
2022/07/24 00:20:53;;;;;;;9.57;8.60;;;;;;;22.17;55.22;97035.75;4900187;29;20092;-79
2022/07/24 00:23:22;;;;;;;9.05;8.07;;;;;;;22.15;55.00;97031.69;4900023;29;20074;-79
2022/07/24 00:25:50;;;;;;;9.30;8.07;;;;;;;22.11;55.40;97027.94;4899644;29;20051;-79
2022/07/24 00:28:18;;;;;;;10.45;7.97;;;;;;;22.09;55.53;97030.03;4899535;29;20084;-79
2022/07/24 00:30:46;;;;;;;8.70;7.78;;;;;;;22.04;55.67;97029.94;4901605;29;20079;-79
2022/07/24 00:33:14;;;;;;;8.75;7.85;;;;;;;22.02;55.84;97030.22;4908054;29;20080;-80
2022/07/24 00:35:42;;;;;;;10.48;8.10;;;;;;;21.99;55.59;97028.81;4900921;29;20144;-80
2022/07/24 00:38:09;;;;;;;10.15;8.68;;;;;;;21.98;55.75;97032.53;4898862;29;20159;-79
2022/07/24 00:40:37;;;;;;;8.98;8.18;;;;;;;21.95;56.00;97026.91;4898725;29;20143;-79
2022/07/24 00:43:05;;;;;;;11.50;8.32;;;;;;;21.91;56.13;97025.78;4898490;29;20076;-79
2022/07/24 00:45:34;;;;;;;8.90;8.10;;;;;;;21.85;55.90;97022.25;4897615;29;20143;-78
2022/07/24 00:48:02;;;;;;;11.05;8.30;;;;;;;21.86;56.03;97018.53;4898296;29;20067;-79
2022/07/24 00:50:31;;;;;;;8.45;7.65;;;;;;;21.86;55.94;97018.53;4897763;29;20048;-79
2022/07/24 00:52:59;;;;;;;9.25;8.20;;;;;;;21.87;56.07;97014.06;4898115;29;20088;-79
2022/07/24 00:55:28;;;;;;;9.60;8.63;;;;;;;21.87;56.28;97017.50;4898394;29;20084;-79
2022/07/24 00:57:56;;;;;;;9.93;8.45;;;;;;;21.86;56.35;97018.53;4898006;29;20237;-78
2022/07/24 01:00:24;;;;;;;9.75;8.75;;;;;;;21.85;56.39;97026.78;4897829;29;20469;-78
2022/07/24 01:02:53;;;;;;;9.40;8.35;;;;;;;21.81;56.36;97026.44;4898085;29;20143;-79
2022/07/24 01:05:21;;;;;;;9.50;8.40;;;;;;;21.75;56.58;97030.88;4897904;29;20088;-79
2022/07/24 01:07:49;;;;;;;9.38;7.85;;;;;;;21.71;56.76;97031.59;4898280;29;20045;-79
2022/07/24 01:10:17;;;;;;;9.23;8.30;;;;;;;21.66;56.75;97027.00;4897438;29;20052;-79
2022/07/24 01:12:44;;;;;;;9.73;8.73;;;;;;;21.61;56.76;97034.91;4897805;29;20128;-78
2022/07/24 01:15:13;;;;;;;10.85;8.57;;;;;;;21.56;57.25;97026.88;4897854;29;20052;-80
2022/07/24 01:17:42;;;;;;;9.30;8.23;;;;;;;21.50;57.39;97025.97;4898255;29;20112;-79
2022/07/24 01:20:12;;;;;;;10.13;8.60;;;;;;;21.49;57.52;97026.22;4898211;29;20151;-79
2022/07/24 01:22:41;;;;;;;10.52;9.07;;;;;;;21.47;57.38;97020.34;4898207;29;20505;-80
2022/07/24 01:25:10;;;;;;;8.68;7.88;;;;;;;21.43;57.46;97021.84;4900010;29;20116;-80
2022/07/24 01:27:38;;;;;;;9.18;7.78;;;;;;;21.37;57.72;97023.59;4898582;29;20056;-79
2022/07/24 01:30:07;;;;;;;9.27;8.20;;;;;;;21.31;57.93;97017.41;4898740;29;20056;-80
2022/07/24 01:32:34;;;;;;;11.15;8.98;;;;;;;21.27;58.01;97016.25;4899762;29;20079;-79
2022/07/24 01:35:02;;;;;;;9.68;8.68;;;;;;;21.26;57.74;97019.97;4898053;29;20520;-80
2022/07/24 01:37:29;;;;;;;9.15;8.20;;;;;;;21.24;58.00;97016.75;4897946;29;20131;-79
2022/07/24 01:39:58;;;;;;;11.32;8.80;;;;;;;21.25;58.10;97022.84;4897631;29;20060;-78
2022/07/24 01:42:26;;;;;;;10.05;7.93;;;;;;;21.22;57.90;97024.16;4897482;29;20091;-79
2022/07/24 01:44:53;;;;;;;9.68;8.75;;;;;;;21.23;58.04;97023.13;4898149;29;20402;-79
2022/07/24 01:47:21;;;;;;;9.93;8.32;;;;;;;21.22;57.87;97024.16;4897950;29;20704;-79
2022/07/24 01:49:49;;;;;;;9.95;8.63;;;;;;;21.19;57.88;97021.97;4897367;29;20535;-79
2022/07/24 01:52:16;;;;;;;13.48;8.85;;;;;;;21.17;58.00;97016.13;4897326;29;20112;-78
2022/07/24 01:54:44;;;;;;;8.57;7.72;;;;;;;21.15;58.32;97029.59;4897009;29;20136;-79
2022/07/24 01:57:13;;;;;;;11.80;8.88;;;;;;;21.14;58.20;97024.53;4896838;29;20104;-79
2022/07/24 01:59:46;;;;;;;9.65;8.55;;;;;;;21.13;58.28;97026.38;4897484;29;20060;-79
2022/07/24 02:02:14;;;;;;;9.50;8.55;;;;;;;21.11;58.21;97023.16;4897191;29;20053;-79
2022/07/24 02:04:42;;;;;;;9.65;8.65;;;;;;;21.09;58.20;97025.25;4897250;29;20124;-79
2022/07/24 02:07:09;;;;;;;8.52;7.70;;;;;;;21.06;58.32;97024.94;4896918;29;20056;-79
2022/07/24 02:09:37;;;;;;;10.02;8.93;;;;;;;21.02;58.38;97024.59;4896838;29;20136;-78
2022/07/24 02:12:05;;;;;;;11.15;8.65;;;;;;;20.99;58.49;97025.09;4897491;29;20152;-79
2022/07/24 02:14:34;;;;;;;10.82;9.13;;;;;;;20.95;58.67;97023.94;4897513;29;20480;-79
2022/07/24 02:17:01;;;;;;;9.63;8.23;;;;;;;20.89;58.73;97023.03;4897116;29;20087;-79
2022/07/24 02:19:29;;;;;;;9.07;8.20;;;;;;;20.85;58.84;97021.09;4896903;29;20057;-79
2022/07/24 02:21:56;;;;;;;10.20;9.20;;;;;;;20.79;59.12;97020.19;4896532;29;20500;-79
2022/07/24 02:24:24;;;;;;;10.48;9.15;;;;;;;20.74;59.27;97014.81;4896899;29;20084;-79
2022/07/24 02:26:51;;;;;;;10.52;8.38;;;;;;;20.71;59.44;97023.22;4897005;29;20140;-78
2022/07/24 02:29:19;;;;;;;10.10;8.07;;;;;;;20.68;59.51;97018.38;4897145;29;20139;-78
2022/07/24 02:31:48;;;;;;;8.70;7.85;;;;;;;20.69;59.62;97017.38;4897969;29;20081;-79
2022/07/24 02:34:16;;;;;;;8.60;7.82;;;;;;;20.67;59.41;97016.78;4898077;29;20055;-79
2022/07/24 02:36:44;;;;;;;10.00;8.30;;;;;;;20.63;59.52;97013.78;4896725;29;20090;-79
2022/07/24 02:39:11;;;;;;;12.68;8.38;;;;;;;20.61;59.77;97012.44;4896837;29;20056;-78
2022/07/24 02:41:39;;;;;;;9.20;8.27;;;;;;;20.57;59.70;97015.56;4896445;29;20190;-79
2022/07/24 02:44:06;;;;;;;11.80;8.70;;;;;;;20.56;59.80;97021.84;4896590;29;20085;-78
2022/07/24 02:46:34;;;;;;;10.32;8.25;;;;;;;20.54;59.91;97018.63;4896549;29;20253;-79
2022/07/24 02:49:03;;;;;;;10.20;8.77;;;;;;;20.51;59.93;97020.94;4896547;29;20140;-79
2022/07/24 02:51:31;;;;;;;10.43;8.95;;;;;;;20.47;59.92;97012.66;4896773;29;20052;-79
2022/07/24 02:53:59;;;;;;;9.13;8.18;;;;;;;20.44;60.05;97018.41;4896928;29;20060;-79
2022/07/24 02:56:26;;;;;;;12.30;8.70;;;;;;;20.40;60.11;97022.59;4902253;29;20077;-80
2022/07/24 02:58:54;;;;;;;9.40;8.50;;;;;;;20.39;60.09;97020.97;4901038;29;20130;-80
2022/07/24 03:01:21;;;;;;;9.43;8.45;;;;;;;20.36;60.13;97019.59;4898748;29;20057;-79
2022/07/24 03:03:49;;;;;;;9.38;8.48;;;;;;;20.35;60.31;97014.53;4896622;29;20084;-78
2022/07/24 03:06:18;;;;;;;9.48;8.45;;;;;;;20.33;60.23;97017.44;4898589;29;20052;-80
2022/07/24 03:08:46;;;;;;;10.00;9.00;;;;;;;20.32;60.17;97018.47;4901171;29;20087;-80
2022/07/24 03:11:13;;;;;;;9.63;8.73;;;;;;;20.32;60.15;97017.66;4900337;29;20092;-79
2022/07/24 03:13:41;;;;;;;10.07;9.07;;;;;;;20.31;60.29;97018.69;4900579;29;20104;-79
2022/07/24 03:16:08;;;;;;;9.10;8.20;;;;;;;20.31;60.24;97018.69;4900247;29;20048;-78
2022/07/24 03:18:36;;;;;;;9.30;8.15;;;;;;;20.31;60.17;97016.03;4900103;29;20056;-78
2022/07/24 03:21:04;;;;;;;10.32;9.32;;;;;;;20.29;60.32;97016.28;4899933;29;20066;-79
2022/07/24 03:23:33;;;;;;;10.82;8.43;;;;;;;20.28;60.22;97017.31;4900143;29;20131;-79
2022/07/24 03:26:00;;;;;;;10.10;8.02;;;;;;;20.26;60.33;97015.94;4900214;29;20123;-80
2022/07/24 03:28:28;;;;;;;11.13;9.25;;;;;;;20.24;60.35;97015.34;4900048;29;20056;-78
2022/07/24 03:30:55;;;;;;;9.35;8.23;;;;;;;20.24;60.46;97015.34;4899705;29;20517;-79
2022/07/24 03:33:23;;;;;;;10.98;8.93;;;;;;;20.22;60.54;97012.94;4901401;29;20088;-79
2022/07/24 03:35:50;;;;;;;9.43;8.32;;;;;;;20.20;60.52;97016.84;4900233;29;20057;-78
2022/07/24 03:38:18;;;;;;;11.30;8.45;;;;;;;20.15;60.53;97015.72;4899591;29;20056;-79
2022/07/24 03:40:47;;;;;;;10.23;9.05;;;;;;;20.12;60.70;97021.47;4899453;29;20469;-79
2022/07/24 03:43:15;;;;;;;9.93;8.93;;;;;;;20.11;60.84;97021.72;4899746;29;20151;-78
2022/07/24 03:45:43;;;;;;;9.00;8.00;;;;;;;20.08;60.86;97014.25;4900017;29;20091;-79
2022/07/24 03:48:10;;;;;;;10.95;8.85;;;;;;;20.05;60.74;97014.69;4899826;29;20105;-79
2022/07/24 03:50:38;;;;;;;9.55;8.02;;;;;;;20.01;60.93;97009.06;4899473;29;20588;-79
2022/07/24 03:53:05;;;;;;;10.45;8.77;;;;;;;19.98;61.01;97009.50;4904052;29;20132;-80
2022/07/24 03:55:34;;;;;;;9.23;8.32;;;;;;;19.96;61.12;97011.59;4902100;29;20449;-80
2022/07/24 03:58:03;;;;;;;10.80;8.48;;;;;;;19.94;61.15;97016.31;4900938;29;20486;-80
2022/07/24 04:00:30;;;;;;;9.38;8.32;;;;;;;19.93;61.22;97017.34;4899295;29;20056;-80
2022/07/24 04:02:58;;;;;;;9.63;7.88;;;;;;;19.93;61.35;97017.34;4899821;29;20056;-78
2022/07/24 04:05:26;;;;;;;10.90;8.60;;;;;;;19.96;61.44;97016.88;4899683;29;20084;-79
2022/07/24 04:07:53;;;;;;;9.60;8.60;;;;;;;19.96;60.98;97023.00;4899150;29;20523;-78
2022/07/24 04:10:21;;;;;;;9.73;8.23;;;;;;;19.95;61.10;97026.66;4898398;29;20572;-78
2022/07/24 04:12:48;;;;;;;9.77;8.82;;;;;;;19.95;61.26;97031.16;4899280;29;20087;-79
2022/07/24 04:15:17;;;;;;;10.98;8.65;;;;;;;19.97;61.32;97023.81;4899222;29;20067;-79
2022/07/24 04:17:45;;;;;;;12.38;8.52;;;;;;;19.99;61.12;97034.97;4899279;29;20147;-79
2022/07/24 04:20:13;;;;;;;10.63;8.25;;;;;;;20.03;60.96;97036.13;4898806;29;20116;-78
2022/07/24 04:22:40;;;;;;;8.82;7.93;;;;;;;20.08;61.64;97044.16;4899119;29;20063;-79
2022/07/24 04:25:09;;;;;;;8.55;7.70;;;;;;;20.14;60.83;97032.66;4898939;29;20056;-78
2022/07/24 04:27:36;;;;;;;9.68;8.73;;;;;;;20.13;60.60;97038.19;4899149;29;20071;-79
2022/07/24 04:30:06;;;;;;;8.60;7.80;;;;;;;20.12;60.76;97037.38;4898457;29;20104;-78
2022/07/24 04:32:34;;;;;;;9.45;8.55;;;;;;;20.10;60.98;97039.44;4898909;29;20084;-79
2022/07/24 04:35:02;;;;;;;12.32;8.80;;;;;;;20.11;60.88;97046.34;4901408;29;20084;-80
2022/07/24 04:37:30;;;;;;;10.60;8.90;;;;;;;20.14;60.94;97040.59;4899299;29;20151;-80
2022/07/24 04:39:57;;;;;;;9.18;8.15;;;;;;;20.15;60.84;97044.06;4898828;29;20108;-79
2022/07/24 04:42:25;;;;;;;9.90;8.85;;;;;;;20.13;60.93;97049.56;4899106;29;20143;-79
2022/07/24 04:44:52;;;;;;;9.55;8.60;;;;;;;20.13;61.16;97051.41;4898773;29;20496;-78
2022/07/24 04:47:20;;;;;;;9.30;8.40;;;;;;;20.09;61.15;97048.41;4898727;29;20090;-78
2022/07/24 04:49:49;;;;;;;10.10;8.27;;;;;;;20.10;61.23;97049.25;4898620;29;20491;-79
2022/07/24 04:52:16;;;;;;;9.45;8.23;;;;;;;20.11;61.49;97054.28;4897877;29;20120;-78
2022/07/24 04:54:44;;;;;;;10.15;8.23;;;;;;;20.12;61.24;97052.47;4898641;29;20132;-78
2022/07/24 04:57:11;;;;;;;11.70;9.00;;;;;;;20.10;61.18;97058.00;4898330;29;20585;-79
2022/07/24 04:59:39;;;;;;;8.82;7.97;;;;;;;20.10;61.37;97055.34;4898665;29;20140;-78
2022/07/24 05:02:07;;;;;;;9.50;8.50;;;;;;;20.10;61.27;97059.84;4898042;29;20053;-78
2022/07/24 05:04:34;;;;;;;11.07;9.07;;;;;;;20.09;61.16;97059.00;4898323;29;20067;-79
2022/07/24 05:07:03;;;;;;;9.27;8.25;;;;;;;20.09;61.47;97066.16;4898277;29;20125;-79
2022/07/24 05:48:20;;;;;;;7.75;6.95;;;;;;;20.53;60.83;97063.91;4958128;29;20204;-78
2022/07/24 05:54:42;;;;;;;7.75;7.05;;;;;;;20.70;59.97;97061.38;5710746;23;20078;31
2022/07/24 05:57:49;;;;;;;8.63;7.15;;;;;;;20.81;60.56;97065.81;5142689;23;20123;-81
2022/07/24 06:04:13;;;;;;;7.00;6.20;;;;;;;20.98;59.61;97065.91;5859113;23;20067;-79
2022/07/24 06:37:17;;;;;;;7.22;6.57;;;;;;;21.99;57.00;97058.03;4903373;29;20029;-79
2022/07/24 06:42:43;;;;;;;8.70;7.63;;;;;;;22.18;56.34;97055.94;4914699;23;20049;-81
2022/07/24 06:45:11;;;;;;;7.82;7.13;;;;;;;22.27;56.52;97058.22;4910362;29;20447;-81
2022/07/24 06:47:40;;;;;;;8.93;8.05;;;;;;;22.35;56.21;97053.28;4910377;29;20048;-80
2022/07/24 06:50:09;;;;;;;8.05;7.25;;;;;;;22.46;56.12;97058.72;4910479;29;20048;-82
2022/07/24 06:52:37;;;;;;;11.27;7.43;;;;;;;22.55;55.96;97060.69;4910096;29;20534;-81
2022/07/24 06:55:06;;;;;;;14.40;8.20;;;;;;;22.65;55.89;97067.19;4909578;29;20079;-80
2022/07/24 06:57:34;;;;;;;8.48;7.57;;;;;;;22.75;55.77;97057.47;4909501;29;20088;-82
2022/07/24 07:00:02;;;;;;;8.68;7.88;;;;;;;22.85;55.66;97062.13;4908859;29;20099;-81
2022/07/24 07:02:29;;;;;;;8.02;7.20;;;;;;;22.94;55.30;97057.16;4908984;29;20064;-79
2022/07/24 07:04:59;;;;;;;10.60;8.95;;;;;;;23.02;55.69;97056.72;4907490;29;20057;-79
2022/07/24 07:07:27;;;;;;;11.43;8.60;;;;;;;23.12;54.52;97064.03;4908239;29;20589;-79
2022/07/24 07:09:54;;;;;;;8.10;7.35;;;;;;;23.21;54.81;97059.84;4907742;29;20079;-80
2022/07/24 07:12:22;;;;;;;9.45;8.30;;;;;;;23.30;54.71;97057.53;4907598;29;20143;-80
2022/07/24 07:14:49;;;;;;;8.95;7.68;;;;;;;23.39;54.43;97061.34;4906976;29;20060;-78
2022/07/24 07:17:17;;;;;;;8.95;8.15;;;;;;;23.49;54.20;97060.66;4906002;29;20145;-79
2022/07/24 07:19:45;;;;;;;8.23;7.47;;;;;;;23.56;53.52;97056.72;4906656;29;20576;-80
2022/07/24 07:22:14;;;;;;;9.27;7.82;;;;;;;23.64;53.01;97060.78;4913879;29;20083;-85
2022/07/24 07:24:42;;;;;;;8.27;7.30;;;;;;;23.74;53.39;97060.03;4908317;29;20225;-82
2022/07/24 07:27:12;;;;;;;8.50;7.63;;;;;;;23.84;53.08;97066.28;4909330;29;20052;-83
2022/07/24 07:29:40;;;;;;;8.57;7.78;;;;;;;23.96;53.08;97060.75;4906825;29;20053;-81
2022/07/24 07:32:07;;;;;;;9.73;7.55;;;;;;;24.08;52.74;97057.91;4910716;29;20056;-83
2022/07/24 07:34:35;;;;;;;10.02;8.27;;;;;;;24.19;53.28;97050.78;4908144;29;20433;-82
2022/07/24 07:37:03;;;;;;;9.75;8.65;;;;;;;24.30;52.66;97062.31;4908768;29;20080;-79
2022/07/24 07:39:32;;;;;;;8.73;7.93;;;;;;;24.39;51.97;97058.88;4908845;29;20083;-81
2022/07/24 07:41:59;;;;;;;8.77;7.97;;;;;;;24.49;51.88;97063.50;4909192;29;20144;-82
2022/07/24 07:44:27;;;;;;;8.35;7.55;;;;;;;24.56;51.86;97050.75;4909277;29;20140;-79
2022/07/24 07:46:54;;;;;;;10.27;8.45;;;;;;;24.68;51.65;97053.97;4907655;29;20049;-80
2022/07/24 07:49:22;;;;;;;9.00;8.05;;;;;;;24.78;51.38;97055.88;4906394;29;20496;-80
2022/07/24 07:51:51;;;;;;;8.80;7.80;;;;;;;24.87;51.05;97058.84;4907187;29;20061;-78
2022/07/24 07:54:19;;;;;;;8.63;7.82;;;;;;;24.95;50.96;97055.69;4906330;29;20104;-80
2022/07/24 07:56:48;;;;;;;8.50;7.60;;;;;;;25.04;50.51;97059.44;4907728;29;20044;-80
2022/07/24 07:59:15;;;;;;;11.70;8.45;;;;;;;25.13;50.43;97053.59;4906315;29;20422;-82
2022/07/24 08:01:43;;;;;;;9.02;8.02;;;;;;;25.20;50.08;97057.63;4906505;29;20433;-81
2022/07/24 08:04:11;;;;;;;8.93;7.95;;;;;;;25.28;49.86;97058.97;4907178;29;20524;-80
2022/07/24 08:06:38;;;;;;;10.80;7.78;;;;;;;25.38;50.13;97064.31;4907625;29;20084;-80
2022/07/24 08:09:06;;;;;;;9.02;8.02;;;;;;;25.49;50.34;97054.44;4910086;29;20052;-81
2022/07/24 08:11:36;;;;;;;9.25;7.90;;;;;;;25.59;49.72;97057.13;4906650;29;20048;-80
2022/07/24 08:14:05;;;;;;;8.95;8.05;;;;;;;25.70;49.89;97060.59;4910634;29;20063;-80
2022/07/24 08:16:32;;;;;;;10.05;7.90;;;;;;;25.80;49.44;97059.78;4910269;29;20131;-80
2022/07/24 08:19:00;;;;;;;9.10;8.20;;;;;;;25.88;49.01;97056.59;4910762;29;20048;-79
2022/07/24 08:21:28;;;;;;;8.45;7.65;;;;;;;25.96;49.18;97060.63;4910296;29;20084;-81
2022/07/24 08:23:55;;;;;;;8.48;7.50;;;;;;;26.06;48.27;97058.75;4910216;29;20497;-80
2022/07/24 08:26:23;;;;;;;8.18;7.43;;;;;;;26.15;48.40;97056.31;4909495;29;20056;-80
2022/07/24 08:28:50;;;;;;;10.40;7.55;;;;;;;26.25;48.27;97061.63;4909309;29;20053;-80
2022/07/24 08:31:19;;;;;;;14.77;8.35;;;;;;;26.35;47.44;97059.97;4907901;29;20119;-79
2022/07/24 08:33:47;;;;;;;8.80;7.90;;;;;;;26.42;47.33;97060.53;4908422;29;20052;-80
2022/07/24 08:36:15;;;;;;;8.07;7.35;;;;;;;26.51;47.07;97058.88;4908889;29;20437;-80
2022/07/24 08:38:42;;;;;;;8.23;7.43;;;;;;;26.58;47.21;97056.72;4908116;29;20109;-81
2022/07/24 08:41:10;;;;;;;8.02;7.30;;;;;;;26.69;46.93;97060.97;4907342;29;20084;-82
2022/07/24 08:43:38;;;;;;;8.80;7.70;;;;;;;26.81;47.03;97051.84;4908238;29;20077;-81
2022/07/24 08:46:09;;;;;;;9.35;7.53;;;;;;;26.90;46.62;97053.66;4907933;29;20072;-82
2022/07/24 08:48:43;;;;;;;9.20;7.47;;;;;;;27.01;45.87;97048.25;4909748;29;20148;-82
2022/07/24 08:51:13;;;;;;;8.48;7.18;;;;;;;27.12;46.15;97049.78;4909478;29;20048;-83
2022/07/24 08:53:41;;;;;;;9.10;8.07;;;;;;;27.23;46.15;97054.03;4910486;29;20060;-81
2022/07/24 08:56:08;;;;;;;7.53;6.90;;;;;;;27.32;45.52;97046.19;4909353;29;20087;-82
2022/07/24 08:58:38;;;;;;;8.55;7.60;;;;;;;27.41;45.07;97049.88;4909418;29;20429;-83
2022/07/24 09:01:06;;;;;;;7.57;6.78;;;;;;;27.50;45.08;97045.50;4908413;29;20421;-81
2022/07/24 09:03:44;;;;;;;8.95;7.55;;;;;;;27.60;44.03;97051.91;4908433;29;20056;-82
2022/07/24 09:06:13;;;;;;;8.88;7.40;;;;;;;27.64;43.81;97042.19;4908333;29;20127;-80
2022/07/24 09:08:41;;;;;;;8.50;7.70;;;;;;;27.67;43.70;97050.47;4908527;29;20048;-81
2022/07/24 09:11:09;;;;;;;8.00;7.20;;;;;;;27.70;44.11;97039.22;4907614;29;20075;-79
2022/07/24 09:16:25;;;;;;;8.13;7.32;;;;;;;27.85;44.16;97042.84;4907432;29;20392;-83
2022/07/24 09:19:04;;;;;;;9.50;6.95;;;;;;;27.95;43.96;97034.72;4907387;29;20063;-81
2022/07/24 09:21:36;;;;;;;8.82;7.45;;;;;;;28.03;43.52;97033.28;4907758;29;20143;-81
2022/07/24 09:24:13;;;;;;;7.47;6.78;;;;;;;28.13;42.95;97028.63;4908078;29;20437;-82
2022/07/24 09:26:46;;;;;;;7.97;7.25;;;;;;;28.25;42.64;97035.47;4908785;29;20425;-81
2022/07/24 09:29:15;;;;;;;8.05;7.00;;;;;;;28.33;42.66;97032.97;4907364;29;20048;-81
2022/07/24 09:31:57;;;;;;;8.43;7.20;;;;;;;28.40;42.92;97027.25;4908359;29;20139;-81
2022/07/24 09:34:27;;;;;;;;;;;;;;;28.45;43.30;97029.88;4907594;29;20084;-80
2022/07/24 09:36:59;;;;;;;7.90;7.15;;;;;;;28.53;42.95;97028.47;4906728;29;19981;-81
2022/07/24 09:39:28;;;;;;;7.55;6.85;;;;;;;28.57;42.68;97031.38;4907020;29;20053;-83
2022/07/24 09:41:57;;;;;;;8.18;7.38;;;;;;;28.61;42.01;97025.16;4907421;29;20063;-82
2022/07/24 09:44:25;;;;;;;7.70;7.00;;;;;;;28.66;41.95;97029.66;4907454;29;20104;-81
2022/07/24 09:46:57;;;;;;;8.15;6.95;;;;;;;28.75;41.31;97033.28;4908814;29;20048;-82
2022/07/24 09:49:28;;;;;;;7.63;6.93;;;;;;;28.80;41.46;97024.38;4907961;29;20485;-81
2022/07/24 09:52:12;;;;;;;7.63;6.90;;;;;;;28.89;41.79;97025.34;4907105;29;20049;-82
2022/07/24 09:54:42;;;;;;;7.78;7.18;;;;;;;29.00;41.67;97032.16;4908711;29;20052;-81
2022/07/24 09:57:22;;;;;;;8.35;7.47;;;;;;;29.07;41.00;97029.91;4906948;29;20049;-82
2022/07/24 09:59:52;;;;;;;7.35;6.75;;;;;;;29.12;40.61;97024.47;4907644;29;20117;-81
2022/07/24 10:02:25;;;;;;;7.13;6.53;;;;;;;29.20;40.34;97028.41;4907170;29;20057;-80
2022/07/24 10:04:55;;;;;;;6.57;6.03;;;;;;;29.25;40.17;97022.16;4906101;29;20088;-83
2022/07/24 10:07:25;;;;;;;7.53;6.90;;;;;;;29.26;39.74;97021.88;4906173;29;20084;-83
2022/07/24 10:09:55;;;;;;;7.70;6.70;;;;;;;29.29;40.00;97025.88;4906017;29;20462;-82
2022/07/24 10:12:24;;;;;;;10.63;7.22;;;;;;;29.34;40.17;97020.41;4905439;29;20049;-82
2022/07/24 10:14:54;;;;;;;8.65;6.60;;;;;;;29.42;40.11;97014.38;4905497;29;20469;-83
2022/07/24 10:17:22;;;;;;;7.18;6.57;;;;;;;29.50;40.40;97016.41;4909163;29;20532;-83
2022/07/24 10:19:52;;;;;;;7.38;6.68;;;;;;;29.58;40.08;97012.22;4911201;29;20179;-83
2022/07/24 10:22:24;;;;;;;6.50;5.90;;;;;;;29.66;38.59;97011.56;4911912;29;20077;-82
2022/07/24 10:24:57;;;;;;;6.47;5.88;;;;;;;29.69;38.55;97010.19;4912252;29;20115;-83
2022/07/24 10:27:28;;;;;;;7.68;6.97;;;;;;;29.69;38.04;97007.50;4912255;29;20056;-81
2022/07/24 10:29:58;;;;;;;7.30;6.70;;;;;;;29.65;37.55;97015.34;4912062;29;20091;-81
2022/07/24 10:32:27;;;;;;;6.57;5.95;;;;;;;29.63;37.41;97014.03;4912182;29;20527;-80
2022/07/24 10:35:04;;;;;;;7.35;6.43;;;;;;;29.64;37.25;97011.03;4912426;29;20052;-81
2022/07/24 10:37:41;;;;;;;6.78;6.18;;;;;;;29.66;37.53;97008.06;4911455;29;20061;-81
2022/07/24 10:40:23;;;;;;;6.72;6.13;;;;;;;29.71;37.27;97003.41;4912700;29;20048;-81
2022/07/24 10:43:10;;;;;;;;;;;;;;;29.79;38.32;97004.63;4913573;29;20112;-81
2022/07/24 10:45:39;;;;;;;6.28;5.68;;;;;;;29.83;37.60;97002.97;4911865;29;19971;-80
2022/07/24 10:48:31;;;;;;;5.68;5.18;;;;;;;29.88;37.87;97002.84;4912548;29;20277;-82
2022/07/24 10:51:06;;;;;;;6.18;5.68;;;;;;;29.93;36.45;96999.28;4912063;29;20421;-83
2022/07/24 10:53:51;;;;;;;6.30;5.75;;;;;;;29.98;36.79;97010.75;4912116;29;20536;-83
2022/07/24 10:56:22;;;;;;;7.32;5.97;;;;;;;30.03;36.83;96998.31;4912475;29;20099;-82
2022/07/24 10:58:58;;;;;;;6.63;5.93;;;;;;;30.06;36.43;97005.75;4912192;29;20056;-82
2022/07/24 11:01:31;;;;;;;6.22;5.72;;;;;;;30.10;36.00;97001.38;4912689;29;20104;-81
2022/07/24 11:04:00;;;;;;;7.03;5.30;;;;;;;30.12;35.88;96993.81;4912415;29;20045;-84
2022/07/24 11:06:45;;;;;;;7.80;6.32;;;;;;;30.07;35.55;96989.34;4912524;29;20044;-82
2022/07/24 11:09:15;;;;;;;6.88;6.00;;;;;;;30.06;34.69;96997.69;4911315;29;20493;-81
2022/07/24 11:12:03;;;;;;;6.20;5.60;;;;;;;30.04;34.65;96991.81;4911251;29;20139;-81
2022/07/24 11:14:50;;;;;;;6.57;5.68;;;;;;;30.05;34.63;96994.22;4912089;29;20056;-83
2022/07/24 11:17:38;;;;;;;5.95;5.45;;;;;;;30.08;35.38;96979.38;4912146;29;20048;-81
2022/07/24 11:20:07;;;;;;;6.45;5.47;;;;;;;30.09;35.02;96975.59;4911750;29;20271;-81
2022/07/24 11:22:43;;;;;;;6.28;5.38;;;;;;;30.11;34.80;96970.69;4911476;29;20497;-83
2022/07/24 11:25:16;;;;;;;6.05;5.47;;;;;;;30.15;35.44;96977.88;4912594;29;20067;-84
2022/07/24 11:27:57;;;;;;;6.60;6.00;;;;;;;30.18;35.16;96976.50;4910730;29;20048;-82
2022/07/24 11:30:27;;;;;;;5.93;5.45;;;;;;;30.22;35.06;96965.91;4908879;29;20045;-83
2022/07/24 11:32:55;;;;;;;7.65;6.00;;;;;;;30.22;35.52;96966.72;4908835;29;20053;-82
2022/07/24 11:35:32;;;;;;;7.03;6.32;;;;;;;30.26;34.69;96962.31;4908471;29;20469;-82
2022/07/24 11:38:01;;;;;;;6.47;5.72;;;;;;;30.33;34.84;96961.97;4908515;29;20079;-85
2022/07/24 11:40:31;;;;;;;7.13;6.25;;;;;;;30.37;34.62;96958.38;4909117;29;20576;-85
2022/07/24 11:43:00;;;;;;;7.00;5.60;;;;;;;30.43;34.49;96969.00;4908307;29;20060;-83
2022/07/24 11:45:36;;;;;;;7.05;6.15;;;;;;;30.49;34.72;96960.53;4908226;29;20053;-84
2022/07/24 11:48:04;;;;;;;5.95;5.32;;;;;;;30.56;34.39;96960.13;4908074;29;20084;-83
2022/07/24 11:50:32;;;;;;;6.85;6.13;;;;;;;30.62;34.56;96953.53;4907275;29;20061;-85
2022/07/24 11:53:00;;;;;;;6.35;5.78;;;;;;;30.67;34.35;96956.09;4906962;29;20080;-84
2022/07/24 11:55:29;;;;;;;6.30;5.70;;;;;;;30.73;33.99;96946.81;4907328;29;20045;-84
2022/07/24 11:57:58;;;;;;;6.28;5.68;;;;;;;30.78;33.86;96946.69;4906962;29;20120;-84
2022/07/24 12:00:45;;;;;;;7.22;6.38;;;;;;;30.83;33.84;96939.59;4906535;29;20055;-83
2022/07/24 12:03:13;;;;;;;7.00;6.35;;;;;;;30.87;33.83;96938.72;4906424;29;20081;-83
2022/07/24 12:05:41;;;;;;;6.72;6.03;;;;;;;30.90;33.86;96932.72;4907131;29;20112;-84
2022/07/24 12:08:19;;;;;;;6.78;6.07;;;;;;;30.93;33.78;96926.72;4907352;29;20080;-83
2022/07/24 12:10:48;;;;;;;7.30;5.90;;;;;;;30.97;33.17;96935.00;4907664;29;20143;-83
2022/07/24 12:13:18;;;;;;;6.90;5.50;;;;;;;30.99;33.65;96930.09;4907822;29;20465;-82
2022/07/24 12:15:45;;;;;;;6.07;5.57;;;;;;;31.03;33.79;96931.09;4907553;29;20052;-82
2022/07/24 12:18:13;;;;;;;6.80;5.80;;;;;;;31.03;33.25;96919.50;4908118;29;20167;-82
2022/07/24 12:20:42;;;;;;;10.77;6.43;;;;;;;30.99;33.16;96927.41;4908187;29;20052;-84
2022/07/24 12:23:12;;;;;;;6.82;6.10;;;;;;;30.92;33.26;96917.06;4907920;29;20088;-84
2022/07/24 12:25:40;;;;;;;6.80;6.07;;;;;;;30.92;33.90;96913.56;4908094;29;20512;-83
2022/07/24 12:28:09;;;;;;;10.98;9.90;;;;;;;30.94;33.53;96909.47;4908523;29;20140;-81
2022/07/24 12:30:40;;;;;;;6.55;5.88;;;;;;;30.97;33.19;96902.66;4908070;29;20056;-82
2022/07/24 12:33:10;;;;;;;6.57;5.97;;;;;;;30.99;33.71;96908.56;4908284;29;20119;-81
2022/07/24 12:35:54;;;;;;;6.25;5.53;;;;;;;31.06;33.47;96898.13;4907835;29;20143;-82
2022/07/24 12:38:26;;;;;;;6.90;6.20;;;;;;;31.11;33.18;96898.00;4907023;29;20076;-82
2022/07/24 12:41:03;;;;;;;6.75;6.25;;;;;;;31.15;33.58;96898.97;4906114;29;20044;-83
2022/07/24 12:43:31;;;;;;;6.45;5.80;;;;;;;31.19;32.94;96891.88;4925272;23;20108;-77
2022/07/24 12:46:07;;;;;;;5.97;5.38;;;;;;;31.23;32.81;96896.66;4898354;29;20057;-77
2022/07/24 12:48:35;;;;;;;6.07;5.47;;;;;;;31.24;32.62;96890.94;4898180;29;20053;-77
2022/07/24 12:51:09;;;;;;;6.65;6.05;;;;;;;31.26;32.80;96882.56;4897725;29;20135;-77
2022/07/24 12:53:41;;;;;;;6.88;6.28;;;;;;;31.30;32.96;96887.03;4898208;29;20056;-77
2022/07/24 12:56:11;;;;;;;6.40;5.43;;;;;;;31.33;32.47;96882.91;4898233;29;20096;-77
2022/07/24 12:58:56;;;;;;;7.07;5.13;;;;;;;31.35;33.07;96880.69;4897873;29;20497;-77
2022/07/24 13:01:26;;;;;;;6.63;5.85;;;;;;;31.37;32.51;96876.59;4897525;29;20087;-77
2022/07/24 13:03:57;;;;;;;6.13;5.53;;;;;;;31.39;32.42;96876.28;4898026;29;20083;-76
2022/07/24 13:06:36;;;;;;;6.60;6.00;;;;;;;31.42;32.47;96872.97;4898041;29;20457;-77